createdAt,value
2023-03-07T00:22:03.305Z,98239.03
2023-03-07T00:25:48.836Z,98234.14
2023-03-07T00:35:21.945Z,98228.66
2023-03-07T00:50:39.645Z,98219.63
2023-03-07T01:05:06.161Z,98205.42
2023-03-07T01:20:09.629Z,98185.60
2023-03-07T01:28:52.188Z,98169.23
2023-03-07T01:48:37.281Z,98148.30
2023-03-07T01:52:43.947Z,98147.08
2023-03-07T01:56:21.422Z,98146.30
2023-03-07T02:06:41.549Z,98133.80
2023-03-07T02:30:44.140Z,98110.42
2023-03-07T02:51:48.471Z,98095.81
2023-03-07T03:12:30.168Z,98086.95
2023-03-07T03:16:50.484Z,98090.04
2023-03-07T03:36:29.256Z,98080.40
2023-03-07T03:56:21.930Z,98073.60
2023-03-07T04:06:52.421Z,98071.55
2023-03-07T04:10:34.624Z,98080.33
2023-03-07T04:14:06.892Z,98076.02
2023-03-07T04:17:34.307Z,98070.88
2023-03-07T04:27:02.681Z,98067.26
2023-03-07T04:30:49.797Z,98064.21
2023-03-07T04:56:40.974Z,98044.65
2023-03-07T05:01:14.745Z,98034.14
2023-03-07T05:04:52.851Z,98031.01
2023-03-07T05:13:35.151Z,98031.06
2023-03-07T05:28:24.816Z,98046.95
2023-03-07T05:32:00.022Z,98051.71
2023-03-07T05:46:54.683Z,98054.75
2023-03-07T05:51:18.678Z,98068.61
2023-03-07T06:00:51.686Z,98072.30
2023-03-07T06:16:41.561Z,98074.04
2023-03-07T06:58:38.837Z,98046.46
2023-03-07T07:02:21.411Z,98044.31
2023-03-07T07:11:35.269Z,98038.57
2023-03-07T07:21:36.205Z,98037.46
2023-03-07T07:36:53.055Z,98034.67
2023-03-07T07:46:41.180Z,98044.04
2023-03-07T07:51:00.729Z,98052.84
2023-03-07T07:54:09.308Z,98051.68
2023-03-07T07:57:45.425Z,98053.48
2023-03-07T08:00:56.320Z,98052.69
2023-03-07T08:04:02.383Z,98049.61
2023-03-07T08:07:13.961Z,98053.92
2023-03-07T08:10:19.527Z,98046.61
2023-03-07T08:13:28.967Z,98051.02
2023-03-07T08:16:36.729Z,98048.30
2023-03-07T08:20:09.509Z,98048.09
2023-03-07T08:23:29.620Z,98046.47
2023-03-07T08:26:36.684Z,98042.51
2023-03-07T08:29:48.906Z,98040.69
2023-03-07T08:32:57.300Z,98038.11
2023-03-07T08:36:07.439Z,98035.70
2023-03-07T08:39:14.027Z,98041.73
2023-03-07T08:42:22.835Z,98045.66
2023-03-07T08:45:26.801Z,98048.14
2023-03-07T08:48:32.221Z,98050.08
2023-03-07T08:57:09.205Z,98055.98
2023-03-07T09:00:40.742Z,98048.11
2023-03-07T09:09:25.907Z,98065.35
2023-03-07T09:13:52.363Z,98061.02
2023-03-07T09:17:44.426Z,98062.86
2023-03-07T09:26:39.548Z,98059.80
2023-03-07T09:30:08.455Z,98062.39
2023-03-07T09:39:05.797Z,98075.08
2023-03-07T09:54:01.414Z,98073.66
2023-03-07T10:23:29.736Z,98071.18
2023-03-07T10:37:42.760Z,98051.86
2023-03-07T10:41:15.792Z,98048.63
2023-03-07T10:49:50.310Z,98034.35
2023-03-07T10:53:35.782Z,98033.85
2023-03-07T10:57:19.337Z,98033.88
2023-03-07T11:01:38.100Z,98031.55
2023-03-07T11:04:54.936Z,98022.23
2023-03-07T11:08:22.183Z,98018.59
2023-03-07T11:11:39.767Z,98030.30
2023-03-07T11:15:05.228Z,98029.66
2023-03-07T11:18:45.250Z,98025.06
2023-03-07T11:22:18.089Z,98020.72
2023-03-07T11:25:39.391Z,98027.96
2023-03-07T11:29:25.278Z,98015.36
2023-03-07T11:33:17.048Z,98014.88
2023-03-07T11:36:46.711Z,98010.64
2023-03-07T11:40:27.917Z,98022.86
2023-03-07T11:44:08.827Z,98028.52
2023-03-07T11:52:39.345Z,98033.93
2023-03-07T11:57:08.434Z,98021.48
2023-03-07T12:00:39.592Z,98023.80
2023-03-07T12:04:55.064Z,98023.64
2023-03-07T12:17:00.112Z,98030.61
2023-03-07T12:20:43.025Z,98029.31
2023-03-07T12:24:37.210Z,98035.67
2023-03-07T12:28:25.149Z,98039.53
2023-03-07T12:36:06.503Z,98037.73
2023-03-07T12:43:37.232Z,98040.29
2023-03-07T12:47:26.696Z,98037.92
2023-03-07T12:51:29.808Z,98042.98
2023-03-07T12:54:58.501Z,98040.66
2023-03-07T12:59:07.979Z,98043.04
2023-03-07T13:03:00.299Z,98046.21
2023-03-07T13:06:14.532Z,98047.10
2023-03-07T13:09:36.502Z,98055.82
2023-03-07T13:14:10.831Z,98056.17
2023-03-07T13:18:11.231Z,98054.00
2023-03-07T13:25:54.971Z,98061.23
2023-03-07T13:30:09.490Z,98055.00
2023-03-07T13:34:00.843Z,98050.40
2023-03-07T13:37:47.543Z,98050.83
2023-03-07T13:41:06.657Z,98058.67
2023-03-07T13:45:07.232Z,98052.61
2023-03-07T13:49:31.937Z,98055.75
2023-03-07T13:52:56.343Z,98061.67
2023-03-07T13:56:27.714Z,98063.81
2023-03-07T13:59:31.579Z,98059.16
2023-03-07T14:05:25.413Z,98063.66
2023-03-07T14:08:34.928Z,98071.87
2023-03-07T14:11:48.140Z,98072.27
2023-03-07T14:15:40.892Z,98067.84
2023-03-07T14:19:43.287Z,98063.46
2023-03-07T14:23:28.193Z,98066.65
2023-03-07T14:26:45.689Z,98062.41
2023-03-07T14:29:51.889Z,98062.45
2023-03-07T14:32:56.360Z,98064.72
2023-03-07T14:36:01.311Z,98061.91
2023-03-07T14:39:06.187Z,98059.17
2023-03-07T14:42:22.770Z,98067.05
2023-03-07T14:45:46.667Z,98062.95
2023-03-07T14:49:12.182Z,98065.77
2023-03-07T14:52:31.600Z,98073.73
2023-03-07T14:55:44.578Z,98073.91
2023-03-07T14:58:54.595Z,98073.27
2023-03-07T15:01:59.714Z,98078.02
2023-03-07T15:05:05.318Z,98074.01
2023-03-07T15:09:13.638Z,98077.95
2023-03-07T15:12:43.209Z,98079.22
2023-03-07T15:16:09.845Z,98083.08
2023-03-07T15:23:59.706Z,98093.77
2023-03-07T15:27:36.407Z,98092.11
2023-03-07T15:30:54.296Z,98093.52
2023-03-07T15:34:40.709Z,98094.23
2023-03-07T15:42:41.035Z,98105.02
2023-03-07T15:46:34.666Z,98104.48
2023-03-07T15:50:30.378Z,98109.86
2023-03-07T15:54:25.692Z,98108.06
2023-03-07T15:58:24.116Z,98107.11
2023-03-07T16:02:43.065Z,98106.34
2023-03-07T16:11:38.309Z,98112.36
2023-03-07T16:15:08.783Z,98116.77
2023-03-07T16:18:34.255Z,98116.10
2023-03-07T16:23:09.936Z,98117.58
2023-03-07T16:26:45.720Z,98120.19
2023-03-07T16:29:54.432Z,98123.86
2023-03-07T16:33:02.958Z,98123.34
2023-03-07T16:36:32.252Z,98122.14
2023-03-07T16:39:56.558Z,98124.98
2023-03-07T16:43:07.078Z,98130.39
2023-03-07T16:46:49.281Z,98131.96
2023-03-07T16:51:24.427Z,98137.98
2023-03-07T16:54:30.689Z,98141.45
2023-03-07T16:57:37.264Z,98136.68
2023-03-07T17:00:44.785Z,98138.52
2023-03-07T17:03:51.845Z,98140.42
2023-03-07T17:07:04.357Z,98141.83
2023-03-07T17:10:16.426Z,98146.37
2023-03-07T17:13:23.832Z,98143.89
2023-03-07T17:16:31.272Z,98145.18
2023-03-07T17:19:38.663Z,98143.53
2023-03-07T17:22:41.686Z,98141.66
2023-03-07T17:25:50.730Z,98135.77
2023-03-07T17:29:00.558Z,98135.40
2023-03-07T17:32:09.726Z,98139.67
2023-03-07T17:36:05.336Z,98137.42
2023-03-07T17:39:14.610Z,98138.60
2023-03-07T17:42:20.600Z,98137.86
2023-03-07T17:45:28.068Z,98142.88
2023-03-07T17:48:35.367Z,98141.20
2023-03-07T17:51:51.417Z,98139.48
2023-03-07T17:55:10.719Z,98136.86
2023-03-07T17:58:46.645Z,98133.77
2023-03-07T18:05:51.525Z,98137.13
2023-03-07T18:09:01.507Z,98136.32
2023-03-07T18:12:07.052Z,98139.75
2023-03-07T18:15:18.672Z,98140.29
2023-03-07T18:18:26.562Z,98144.08
2023-03-07T18:21:31.753Z,98146.06
2023-03-07T18:24:39.483Z,98142.39
2023-03-07T18:31:48.196Z,98143.02
2023-03-07T18:35:19.401Z,98148.86
2023-03-07T18:38:39.895Z,98144.70
2023-03-07T18:42:06.125Z,98143.69
2023-03-07T18:45:37.314Z,98142.48
2023-03-07T18:49:09.292Z,98141.65
2023-03-07T18:52:18.282Z,98145.91
2023-03-07T18:55:26.031Z,98145.27
2023-03-07T18:58:32.320Z,98142.80
2023-03-07T19:01:45.254Z,98150.50
2023-03-07T19:05:20.332Z,98152.81
2023-03-07T19:13:27.903Z,98148.46
2023-03-07T19:17:07.405Z,98150.81
2023-03-07T19:20:52.884Z,98158.05
2023-03-07T19:24:05.606Z,98159.58
2023-03-07T19:27:17.571Z,98157.77
2023-03-07T19:30:21.460Z,98151.52
2023-03-07T19:33:25.738Z,98156.04
2023-03-07T19:36:34.835Z,98156.84
2023-03-07T19:39:39.788Z,98158.76
2023-03-07T19:42:45.025Z,98154.66
2023-03-07T19:45:56.766Z,98162.95
2023-03-07T19:49:02.742Z,98160.52
2023-03-07T19:52:06.663Z,98162.58
2023-03-07T19:55:12.979Z,98162.45
2023-03-07T19:58:21.921Z,98161.77
2023-03-07T20:01:34.491Z,98162.66
2023-03-07T20:04:59.741Z,98158.88
2023-03-07T20:08:20.744Z,98155.52
2023-03-07T20:11:57.404Z,98157.33
2023-03-07T20:15:07.007Z,98153.73
2023-03-07T20:18:17.791Z,98147.98
2023-03-07T20:21:28.300Z,98152.52
2023-03-07T20:24:33.406Z,98152.42
2023-03-07T20:27:42.285Z,98152.79
2023-03-07T20:30:47.496Z,98154.42
2023-03-07T20:33:52.879Z,98146.54
2023-03-07T20:36:57.280Z,98143.27
2023-03-07T20:40:06.727Z,98142.13
2023-03-07T20:43:12.719Z,98146.30
2023-03-07T20:46:18.704Z,98143.19
2023-03-07T20:49:31.771Z,98139.90
2023-03-07T20:52:39.101Z,98136.13
2023-03-07T20:56:03.501Z,98135.25
2023-03-07T20:59:08.262Z,98131.44
2023-03-07T21:02:41.439Z,98128.11
2023-03-07T21:06:19.922Z,98134.84
2023-03-07T21:14:48.015Z,98130.66
2023-03-07T21:18:48.755Z,98129.54
2023-03-07T21:22:22.446Z,98128.62
2023-03-07T21:26:06.940Z,98128.30
2023-03-07T21:29:40.000Z,98129.48
2023-03-07T21:33:28.570Z,98130.45
2023-03-07T21:37:08.161Z,98130.29
2023-03-07T21:45:38.790Z,98136.23
2023-03-07T21:49:36.950Z,98131.55
2023-03-07T21:53:02.916Z,98138.42
2023-03-07T21:56:37.427Z,98135.38
2023-03-07T22:11:40.954Z,98146.53
2023-03-07T22:15:12.037Z,98145.27
2023-03-07T22:23:14.561Z,98145.12
2023-03-07T22:26:49.638Z,98148.03
2023-03-07T22:30:52.714Z,98148.88
2023-03-07T22:34:46.906Z,98141.27
2023-03-07T22:43:16.847Z,98129.00
2023-03-07T22:46:34.782Z,98124.00
2023-03-07T22:50:34.959Z,98128.02
2023-03-07T22:54:12.060Z,98127.20
2023-03-07T22:57:55.745Z,98121.09
2023-03-07T23:05:48.328Z,98116.78
2023-03-07T23:09:24.867Z,98113.35
2023-03-07T23:22:45.275Z,98086.65
2023-03-07T23:26:23.583Z,98094.48
2023-03-07T23:29:34.195Z,98097.94
2023-03-07T23:33:05.591Z,98095.92
2023-03-07T23:36:26.541Z,98090.17
2023-03-07T23:39:47.170Z,98090.99
2023-03-07T23:43:00.298Z,98085.98
2023-03-07T23:46:16.584Z,98077.91
